(541)-479-2230 [email protected]

City of Grants Pass

Grants Pass AirportĀ 

Current Weather Conditions Medford Airport:
MEDFORD, OR
Metar
KMFR 192253Z 35004KT 10SM SCT060 17/02 A3017 RMK AO2 RAB2158E07 SLP217 P0000 T01720022

22:53 UTC

Wind: 350° 4kt

Visibility: 10 SM

Sky: SCT 6000 ft

Temp: 17 deg C / 62.6 deg F

Dewpoint: 2 deg C / 35.6 deg F

Pressure: 30.17 inHg

TAF
KMFR 191732Z 1918/2018 VRB03KT P6SM SCT060 FM192300 35007KT P6SM SKC FM200400 VRB03KT P6SM SKC
Pireps (2)
000 UBUS31 KKCI 192216 MHS UA /OV LMT354043 /TM 2215 /FL350 /TP B737 /WV 35677KT /TB CONT LGT CHOP 350/RM AWC-WEB
MHS UA /OV LMT354043 /TM 2215 /FL350 /TP B737 /WV 35677KT /TB CONT LGT CHOP 350/RM AWC-WEB